Time;durP1;ratioP1;P1;durP2;ratioP2;P2;SDS_P1;SDS_P2;PMS_P1;PMS_P2;Temp;Humidity;BMP_temperature;BMP_pressure;BME280_temperature;BME280_humidity;BME280_pressure;Samples;Min_cycle;Max_cycle;Signal;HPM_P1;HPM_P2
2024/03/06 00:05:23;;;;;;;28.30;11.30;;;;;;;-147.86;100.00;-17609.17;102965;1291;601036;-52
2024/03/06 00:07:51;;;;;;;27.60;10.60;;;;;;;-147.86;100.00;-17608.01;104997;1266;59350;-51
2024/03/06 00:10:19;;;;;;;25.00;11.00;;;;;;;-147.86;100.00;-17607.72;104851;1270;59248;-51
2024/03/06 00:12:47;;;;;;;27.30;11.20;;;;;;;-147.86;100.00;-17607.72;104866;1266;71486;-51
2024/03/06 00:15:15;;;;;;;22.80;11.50;;;;;;;-147.86;100.00;-17608.59;104851;1266;64480;-49
2024/03/06 00:17:42;;;;;;;29.40;10.50;;;;;;;-147.86;100.00;-17609.17;104825;1269;71816;-55
2024/03/06 00:20:11;;;;;;;22.40;10.00;;;;;;;-147.86;100.00;-17609.17;105007;1268;241138;-51
2024/03/06 00:22:39;;;;;;;25.10;10.70;;;;;;;-147.86;100.00;-17609.17;105236;1264;60074;-54
2024/03/06 00:25:08;;;;;;;25.70;10.60;;;;;;;-147.86;100.00;-17609.17;105182;1268;72169;-50
2024/03/06 00:27:35;;;;;;;22.00;11.10;;;;;;;-147.86;100.00;-17609.17;105187;1269;65194;-52
2024/03/06 00:30:04;;;;;;;26.90;12.00;;;;;;;-147.86;100.00;-17609.17;105204;1269;71469;-52
2024/03/06 00:32:31;;;;;;;24.20;11.20;;;;;;;-147.86;100.00;-17609.17;105219;1263;59814;-53
2024/03/06 00:34:59;;;;;;;22.40;11.30;;;;;;;-147.86;100.00;-17608.30;105165;1266;59627;-54
2024/03/06 00:37:27;;;;;;;19.30;10.60;;;;;;;-147.86;100.00;-17212.96;105193;1262;72974;-50
2024/03/06 00:39:55;;;;;;;25.70;10.70;;;;;;;-147.86;100.00;-16916.87;105191;1264;65229;-52
2024/03/06 00:42:23;;;;;;;34.00;11.80;;;;;;;-147.86;100.00;-16916.87;105217;1264;72651;-50
2024/03/06 00:44:51;;;;;;;25.10;11.10;;;;;;;-147.86;100.00;-17114.27;105191;1263;59774;-50
2024/03/06 00:47:19;;;;;;;23.40;10.70;;;;;;;-147.86;100.00;-17410.35;105205;1264;60155;-53
2024/03/06 00:49:47;;;;;;;23.30;10.80;;;;;;;-147.86;100.00;-17608.30;105199;1263;71870;-55
2024/03/06 00:52:16;;;;;;;23.90;10.80;;;;;;;-147.86;100.00;-17609.17;105229;1267;63114;-54
2024/03/06 00:54:44;;;;;;;24.20;11.50;;;;;;;-147.86;100.00;-17609.17;105239;1263;71454;-53
2024/03/06 00:57:12;;;;;;;30.50;11.40;;;;;;;-147.86;100.00;-17609.17;105128;1263;59666;-55
2024/03/06 00:59:40;;;;;;;27.90;11.60;;;;;;;-147.86;100.00;-17609.17;105198;1264;59968;-53
2024/03/06 01:02:08;;;;;;;27.70;11.90;;;;;;;-147.86;100.00;-17609.17;105148;1267;72138;-56
2024/03/06 01:04:35;;;;;;;26.00;11.30;;;;;;;-147.86;100.00;-17609.17;105104;1263;63907;-50
2024/03/06 01:07:04;;;;;;;23.40;10.60;;;;;;;-147.86;100.00;-17609.17;105136;1266;71396;-50
2024/03/06 01:09:32;;;;;;;26.20;12.20;;;;;;;-147.86;100.00;-17609.17;105129;1265;59750;-51
2024/03/06 02:04:03;;;;;;;18.50;9.90;;;;;;;-147.86;100.00;-17609.17;102754;1290;600241;-53
2024/03/06 02:06:31;;;;;;;25.50;10.00;;;;;;;-147.86;100.00;-17609.17;105132;1270;59342;-49
2024/03/06 02:08:59;;;;;;;23.50;10.60;;;;;;;-147.86;100.00;-17609.17;105013;1264;59341;-53
2024/03/06 02:11:28;;;;;;;20.80;10.40;;;;;;;-147.86;100.00;-17609.17;105056;1264;71381;-55
2024/03/06 02:13:57;;;;;;;25.90;10.10;;;;;;;-147.86;100.00;-17609.17;105031;1270;63494;-50
2024/03/06 02:16:24;;;;;;;19.70;11.30;;;;;;;-147.86;100.00;-17609.17;104886;1267;71397;-53
2024/03/06 02:18:56;;;;;;;25.20;10.40;;;;;;;-147.86;100.00;-17609.17;105042;1266;298487;-52
2024/03/06 02:22:32;;;;;;;20.00;10.20;;;;;;;-147.86;100.00;-17609.17;102927;1289;600011;-50
2024/03/06 02:25:00;;;;;;;21.60;10.50;;;;;;;-147.86;100.00;-17609.17;105123;1270;59630;-48
2024/03/06 02:27:28;;;;;;;25.20;9.90;;;;;;;-147.86;100.00;-17609.17;105178;1270;59325;-52
2024/03/06 02:29:56;;;;;;;20.60;10.50;;;;;;;-147.86;100.00;-17609.17;105070;1269;70963;-50
2024/03/06 02:32:24;;;;;;;27.60;10.60;;;;;;;-147.86;100.00;-17609.17;105037;1264;63664;-55
2024/03/06 02:34:51;;;;;;;28.50;11.60;;;;;;;-147.86;100.00;-17609.17;105067;1270;71698;-53
2024/03/06 02:37:19;;;;;;;21.70;10.60;;;;;;;-147.86;100.00;-17609.17;104989;1266;269737;-48
2024/03/06 02:39:47;;;;;;;21.90;11.70;;;;;;;-147.86;100.00;-17609.17;105225;1267;59296;-50
2024/03/06 02:42:15;;;;;;;27.40;11.90;;;;;;;-147.86;100.00;-17609.17;105163;1266;70943;-49
2024/03/06 02:44:43;;;;;;;22.20;10.80;;;;;;;-147.86;100.00;-17609.17;105257;1260;63983;-48
2024/03/06 02:47:11;;;;;;;28.00;10.50;;;;;;;-147.86;100.00;-17609.17;105230;1264;71376;-51
2024/03/06 02:49:39;;;;;;;22.30;11.90;;;;;;;-147.86;100.00;-17609.17;105191;1267;59725;-52
2024/03/06 02:52:07;;;;;;;25.30;11.60;;;;;;;-147.86;100.00;-17609.17;105329;1266;59665;-51
2024/03/06 02:54:35;;;;;;;22.30;10.60;;;;;;;-147.86;100.00;-17609.17;105204;1267;72999;-52
2024/03/06 02:57:03;;;;;;;18.90;11.00;;;;;;;-147.86;100.00;-17609.17;105214;1261;64288;-53
2024/03/06 02:59:31;;;;;;;21.00;10.90;;;;;;;-147.86;100.00;-17609.17;105202;1260;71689;-49
2024/03/06 03:02:00;;;;;;;26.40;11.30;;;;;;;-147.86;100.00;-17609.17;105167;1267;59670;-54
2024/03/06 03:04:28;;;;;;;26.30;12.10;;;;;;;-147.86;100.00;-17609.17;105241;1264;59674;-52
2024/03/06 03:06:56;;;;;;;22.50;11.60;;;;;;;-147.86;100.00;-17609.17;105199;1262;71768;-51
2024/03/06 03:09:23;;;;;;;31.30;12.60;;;;;;;-147.86;100.00;-17609.17;105168;1262;64370;-51
2024/03/06 03:11:51;;;;;;;28.70;12.00;;;;;;;-147.86;100.00;-17609.17;105183;1267;71861;-49
2024/03/06 03:14:19;;;;;;;26.10;11.70;;;;;;;-147.86;100.00;-17609.17;105215;1261;59646;-50
2024/03/06 03:16:47;;;;;;;33.80;11.70;;;;;;;-147.86;100.00;-17609.17;105213;1267;59589;-50
2024/03/06 03:19:15;;;;;;;26.00;12.40;;;;;;;-147.86;100.00;-17609.17;105178;1262;73132;-54
2024/03/06 03:21:44;;;;;;;28.10;12.30;;;;;;;-147.86;100.00;-17609.17;105246;1264;63118;-52
2024/03/06 03:24:12;;;;;;;24.40;11.70;;;;;;;-147.86;100.00;-17609.17;105192;1264;71705;-51
2024/03/06 03:26:41;;;;;;;24.80;11.50;;;;;;;-147.86;100.00;-17609.17;105178;1263;60853;-50
2024/03/06 03:29:10;;;;;;;29.00;12.40;;;;;;;-147.86;100.00;-17609.17;105247;1267;59720;-50
2024/03/06 03:31:38;;;;;;;27.40;11.50;;;;;;;-147.86;100.00;-17609.17;105247;1263;73000;-50
2024/03/06 03:34:06;;;;;;;24.20;11.20;;;;;;;-147.86;100.00;-17609.17;105296;1264;63113;-50
2024/03/06 03:36:34;;;;;;;22.00;11.10;;;;;;;-147.86;100.00;-17609.17;105195;1266;72600;-50
2024/03/06 03:39:03;;;;;;;30.90;12.20;;;;;;;-147.86;100.00;-17609.17;105282;1263;59758;-53
2024/03/06 03:41:31;;;;;;;27.60;12.20;;;;;;;-147.86;100.00;-17609.17;105239;1262;60014;-49
2024/03/06 03:43:59;;;;;;;28.40;13.00;;;;;;;-147.86;100.00;-17609.17;105168;1267;73036;-54
2024/03/06 03:46:27;;;;;;;25.00;12.00;;;;;;;-147.86;100.00;-17609.17;105191;1263;64323;-50
2024/03/06 03:48:55;;;;;;;26.60;12.30;;;;;;;-147.86;100.00;-17609.17;105155;1264;72787;-52
2024/03/06 03:51:23;;;;;;;29.20;12.60;;;;;;;-147.86;100.00;-17609.17;105249;1267;59768;-53
2024/03/06 03:53:52;;;;;;;27.00;11.40;;;;;;;-147.86;100.00;-17609.17;105222;1267;59640;-52
2024/03/06 03:56:20;;;;;;;25.80;12.80;;;;;;;-147.86;100.00;-17609.17;105218;1267;73011;-52
2024/03/06 03:58:48;;;;;;;28.60;11.80;;;;;;;-147.86;100.00;-17609.17;105222;1267;63122;-54
2024/03/06 04:01:17;;;;;;;29.60;12.90;;;;;;;-147.86;100.00;-17609.17;105278;1267;72031;-53
2024/03/06 04:03:44;;;;;;;28.70;13.30;;;;;;;-147.86;100.00;-17609.17;105138;1264;59915;-50
2024/03/06 04:06:13;;;;;;;24.50;12.80;;;;;;;-147.86;100.00;-17609.17;105154;1267;59944;-49
2024/03/06 04:08:41;;;;;;;33.30;12.70;;;;;;;-147.86;100.00;-17609.17;105162;1267;72088;-53
2024/03/06 04:11:09;;;;;;;27.70;12.30;;;;;;;-147.86;100.00;-17609.17;105176;1267;64333;-53
2024/03/06 04:13:37;;;;;;;25.10;12.60;;;;;;;-147.86;100.00;-17609.17;105208;1263;71638;-48
2024/03/06 04:16:05;;;;;;;29.50;13.20;;;;;;;-147.86;100.00;-17609.17;105154;1263;59761;-48
2024/03/06 04:18:33;;;;;;;26.40;13.50;;;;;;;-147.86;100.00;-17609.17;105235;1264;59560;-52
2024/03/06 04:21:05;;;;;;;32.60;12.80;;;;;;;-147.86;100.00;-17609.17;105665;1260;71844;-55
2024/03/06 04:23:33;;;;;;;29.90;12.60;;;;;;;-147.86;100.00;-17609.17;105692;1261;64554;-52
2024/03/06 04:26:02;;;;;;;27.20;12.50;;;;;;;-147.86;100.00;-17609.17;105703;1257;71400;-48
2024/03/06 04:28:30;;;;;;;29.70;13.30;;;;;;;-147.86;100.00;-17609.17;105652;1260;59761;-54
2024/03/06 04:30:57;;;;;;;26.50;12.10;;;;;;;-147.86;100.00;-17609.17;105669;1260;59653;-52
2024/03/06 04:33:25;;;;;;;27.50;13.20;;;;;;;-147.86;100.00;-17609.17;105675;1254;71711;-50
2024/03/06 04:35:53;;;;;;;37.20;14.50;;;;;;;-147.86;100.00;-17609.17;105663;1260;63124;-52
2024/03/06 04:38:20;;;;;;;26.10;12.70;;;;;;;-147.86;100.00;-17609.17;105665;1259;71400;-52
2024/03/06 04:40:48;;;;;;;29.90;14.30;;;;;;;-147.86;100.00;-17609.17;105647;1260;60887;-51
2024/03/06 04:43:16;;;;;;;31.50;14.60;;;;;;;-147.86;100.00;-17609.17;105699;1263;59644;-52
2024/03/06 04:45:44;;;;;;;30.80;16.80;;;;;;;-147.86;100.00;-17609.17;105871;1257;73050;-53
2024/03/06 04:48:12;;;;;;;32.30;16.20;;;;;;;-147.86;100.00;-17609.17;105984;1256;64447;-51
2024/03/06 04:50:41;;;;;;;23.80;13.40;;;;;;;-147.86;100.00;-17609.17;105932;1254;71382;-50
2024/03/06 04:53:10;;;;;;;27.20;12.20;;;;;;;-147.86;100.00;-17609.17;105975;1252;59659;-52
2024/03/06 04:55:38;;;;;;;27.60;12.00;;;;;;;-147.86;100.00;-17609.17;106018;1251;60380;-51
2024/03/06 04:58:06;;;;;;;25.40;13.50;;;;;;;-147.86;100.00;-17609.17;105939;1251;71855;-54
2024/03/06 05:00:34;;;;;;;64.60;27.00;;;;;;;-147.86;100.00;-17609.17;105856;1251;63817;-54
2024/03/06 05:03:01;;;;;;;38.00;19.10;;;;;;;-147.86;100.00;-17609.17;105942;1256;71315;-51
2024/03/06 05:05:46;;;;;;;31.70;13.60;;;;;;;-147.86;100.00;-17609.17;105924;1255;59711;-50
2024/03/06 05:08:31;;;;;;;26.10;11.50;;;;;;;-147.86;100.00;-17609.17;105943;1254;59765;-49
2024/03/06 05:11:17;;;;;;;25.50;12.10;;;;;;;-147.86;100.00;-17609.17;105886;1256;71861;-51
2024/03/06 05:14:02;;;;;;;31.60;12.80;;;;;;;-147.86;100.00;-17609.17;105950;1256;63268;-52
2024/03/06 05:16:48;;;;;;;24.60;12.10;;;;;;;-147.86;100.00;-17609.17;105879;1257;71369;-55
2024/03/06 05:19:34;;;;;;;23.20;12.10;;;;;;;-147.86;100.00;-17609.17;105900;1255;60756;-51
2024/03/06 05:22:19;;;;;;;26.20;12.30;;;;;;;-147.86;100.00;-17609.17;105913;1251;60004;-49
2024/03/06 05:25:05;;;;;;;34.60;13.80;;;;;;;-147.86;100.00;-17609.17;105906;1251;72090;-53
2024/03/06 05:27:50;;;;;;;24.70;12.60;;;;;;;-147.86;100.00;-17609.17;105897;1251;63162;-54
2024/03/06 05:30:36;;;;;;;33.30;13.30;;;;;;;-147.86;100.00;-17609.17;105908;1251;72680;-51
2024/03/06 05:33:22;;;;;;;36.70;14.00;;;;;;;-147.86;100.00;-17609.17;105914;1254;59685;-52
2024/03/06 05:36:07;;;;;;;26.40;12.50;;;;;;;-147.86;100.00;-17609.17;105891;1254;60119;-52
2024/03/06 05:38:52;;;;;;;31.60;13.00;;;;;;;-147.86;100.00;-17609.17;105880;1256;72972;-50
2024/03/06 05:41:41;;;;;;;29.40;13.30;;;;;;;-147.86;100.00;-17609.17;106004;1255;65217;-54
2024/03/06 05:44:27;;;;;;;27.90;13.40;;;;;;;-147.86;100.00;-17609.17;105893;1254;72668;-49
2024/03/06 05:47:12;;;;;;;29.80;13.70;;;;;;;-147.86;100.00;-17609.17;105977;1256;59659;-51
2024/03/06 05:49:57;;;;;;;22.40;10.60;;;;;;;-147.86;100.00;-17609.17;105882;1251;59947;-50
2024/03/06 05:52:43;;;;;;;22.20;12.90;;;;;;;-147.86;100.00;-17609.17;105975;1256;71735;-53
2024/03/06 05:55:28;;;;;;;25.30;9.80;;;;;;;-147.86;100.00;-17609.17;105912;1254;65212;-50
2024/03/06 05:58:13;;;;;;;35.60;14.40;;;;;;;-147.86;100.00;-17609.17;105912;1253;71427;-51
2024/03/06 06:00:45;;;;;;;25.80;13.60;;;;;;;-147.86;100.00;-17609.17;105910;1257;59784;-54
2024/03/06 06:03:13;;;;;;;30.60;13.00;;;;;;;-147.86;100.00;-17609.17;105956;1257;59644;-51
2024/03/06 06:05:41;;;;;;;32.60;13.50;;;;;;;-147.86;100.00;-17609.17;105923;1251;71742;-50
2024/03/06 06:08:09;;;;;;;24.60;12.30;;;;;;;-147.86;100.00;-17609.17;105949;1251;64229;-52
2024/03/06 06:10:37;;;;;;;25.60;12.70;;;;;;;-147.86;100.00;-17609.17;105995;1252;71385;-55
2024/03/06 06:13:05;;;;;;;35.60;13.80;;;;;;;-147.86;100.00;-17609.17;105993;1255;59712;-49
2024/03/06 06:15:32;;;;;;;21.10;12.10;;;;;;;-147.86;100.00;-17609.17;105985;1256;59672;-52
2024/03/06 06:18:00;;;;;;;27.90;13.60;;;;;;;-147.86;100.00;-17609.17;105900;1251;71788;-52
2024/03/06 06:20:28;;;;;;;32.00;13.90;;;;;;;-147.86;100.00;-17609.17;106009;1251;64010;-54
2024/03/06 06:22:56;;;;;;;28.60;12.30;;;;;;;-147.86;100.00;-17609.17;105939;1251;71337;-52
2024/03/06 06:25:24;;;;;;;24.40;12.00;;;;;;;-147.86;100.00;-17609.17;105959;1256;59659;-50
2024/03/06 06:27:52;;;;;;;27.70;13.50;;;;;;;-147.86;100.00;-17609.17;105964;1256;59548;-56
2024/03/06 06:30:19;;;;;;;24.80;12.20;;;;;;;-147.86;100.00;-17609.17;105931;1251;71866;-53
2024/03/06 06:32:47;;;;;;;30.90;12.20;;;;;;;-147.86;100.00;-17609.17;105909;1252;64515;-51
2024/03/06 06:35:15;;;;;;;22.80;11.50;;;;;;;-147.86;100.00;-17609.17;105950;1256;71324;-53
2024/03/06 06:37:43;;;;;;;29.90;13.10;;;;;;;-147.86;100.00;-17609.17;105912;1251;60438;-52
2024/03/06 06:40:12;;;;;;;30.80;13.10;;;;;;;-147.86;100.00;-17609.17;105884;1252;60367;-47
2024/03/06 06:42:49;;;;;;;28.20;12.60;;;;;;;-147.86;100.00;-17609.17;105939;1251;73851;-53
2024/03/06 06:45:19;;;;;;;21.40;11.10;;;;;;;-147.86;100.00;-17609.17;105997;1251;63900;-52
2024/03/06 06:47:47;;;;;;;29.40;12.30;;;;;;;-147.86;100.00;-17609.17;106003;1254;73793;-54
2024/03/06 06:50:16;;;;;;;25.40;12.10;;;;;;;-147.86;100.00;-17609.17;105981;1253;60552;-52
2024/03/06 06:52:44;;;;;;;20.20;11.20;;;;;;;-147.86;100.00;-17609.17;105934;1251;60370;-48
2024/03/06 06:55:11;;;;;;;24.30;12.20;;;;;;;-147.86;100.00;-17609.17;105900;1253;73995;-50
2024/03/06 06:57:39;;;;;;;27.30;13.10;;;;;;;-147.86;100.00;-17609.17;105906;1257;64366;-53
2024/03/06 07:00:11;;;;;;;28.40;14.40;;;;;;;-147.86;100.00;-17609.17;105973;1256;72714;-54
2024/03/06 07:02:41;;;;;;;25.80;12.00;;;;;;;-147.86;100.00;-17609.17;105845;1252;60427;-49
2024/03/06 07:05:10;;;;;;;26.60;11.30;;;;;;;-147.86;100.00;-17609.17;105970;1251;62026;-49
2024/03/06 07:07:38;;;;;;;24.30;12.80;;;;;;;-147.86;100.00;-17609.17;106086;1251;73118;-52
2024/03/06 07:10:07;;;;;;;20.00;11.10;;;;;;;-147.86;100.00;-17609.17;105913;1256;66103;-53
2024/03/06 07:12:35;;;;;;;23.10;12.90;;;;;;;-147.86;100.00;-17609.17;105939;1251;73444;-54
2024/03/06 07:15:03;;;;;;;34.30;12.40;;;;;;;-147.86;100.00;-17609.17;105928;1257;60552;-47
2024/03/06 07:17:31;;;;;;;24.60;13.40;;;;;;;-147.86;100.00;-17609.17;106014;1252;62560;-49
2024/03/06 07:19:59;;;;;;;24.20;12.70;;;;;;;-147.86;100.00;-17609.17;105950;1251;73873;-53
2024/03/06 07:22:27;;;;;;;23.50;12.50;;;;;;;-147.86;100.00;-17609.17;105939;1256;65656;-50
2024/03/06 07:24:55;;;;;;;21.50;12.70;;;;;;;-147.86;100.00;-17609.17;105851;1257;72413;-50
2024/03/06 07:27:22;;;;;;;23.50;11.90;;;;;;;-147.86;100.00;-17609.17;105767;1253;60744;-54
2024/03/06 07:29:50;;;;;;;23.10;13.00;;;;;;;-147.86;100.00;-17609.17;105738;1252;60539;-56
2024/03/06 07:32:18;;;;;;;31.80;14.10;;;;;;;-147.86;100.00;-17609.17;105613;1257;74154;-51
2024/03/06 07:34:45;;;;;;;39.80;18.60;;;;;;;-147.86;100.00;-17609.17;105816;1253;65099;-56
2024/03/06 07:37:14;;;;;;;22.20;13.50;;;;;;;-147.86;100.00;-17609.17;105820;1254;73696;-52
2024/03/06 07:39:42;;;;;;;30.40;14.80;;;;;;;-147.86;100.00;-17609.17;105843;1256;60543;-50
2024/03/06 07:42:10;;;;;;;20.00;12.30;;;;;;;-147.86;100.00;-17609.17;105833;1253;60530;-47
2024/03/06 07:44:38;;;;;;;36.10;14.10;;;;;;;-147.86;100.00;-17460.27;105826;1256;75043;-49
2024/03/06 07:47:07;;;;;;;22.20;12.90;;;;;;;-147.86;100.00;-16620.75;105844;1257;65166;-51
2024/03/06 07:49:35;;;;;;;34.00;15.50;;;;;;;-147.86;100.00;-15732.26;105897;1256;74946;-55
2024/03/06 07:52:03;;;;;;;25.10;13.80;;;;;;;-147.86;100.00;-15041.06;105837;1256;60550;-52
2024/03/06 07:54:33;;;;;;;22.30;13.30;;;;;;;-147.86;99.36;-12670.27;105700;1259;61092;-51
2024/03/06 07:57:00;;;;;;;22.90;12.60;;;;;;;-147.86;98.36;-10001.38;105918;1252;75082;-49
2024/03/06 07:59:28;;;;;;;20.80;11.70;;;;;;;-147.86;95.95;-3419.77;105856;1257;66532;-48
2024/03/06 08:01:56;;;;;;;19.40;12.00;;;;;;;-147.86;95.88;295.86;105796;1253;74076;-50
2024/03/06 08:04:24;;;;;;;28.90;11.80;;;;;;;-147.86;94.50;4214.92;105848;1257;60533;-50
2024/03/06 08:06:52;;;;;;;19.70;11.10;;;;;;;-147.86;91.69;16492.53;105869;1254;62254;-50
2024/03/06 08:09:19;;;;;;;17.00;10.40;;;;;;;-147.86;90.10;30903.94;105802;1254;76139;-49
2024/03/06 08:11:47;;;;;;;22.00;11.50;;;;;;;-147.86;88.06;39974.70;105787;1253;65670;-53
2024/03/06 08:14:17;;;;;;;20.50;11.70;;;;;;;-147.86;88.87;41961.99;105837;1257;72621;-52
2024/03/06 08:16:45;;;;;;;22.60;11.40;;;;;;;-147.86;89.70;40398.84;105923;1257;61569;-52
2024/03/06 08:19:13;;;;;;;18.10;11.60;;;;;;;-147.86;88.70;41749.45;105869;1257;60398;-51
2024/03/06 08:21:41;;;;;;;28.90;12.50;;;;;;;-147.86;89.04;42172.20;105894;1257;74800;-49
2024/03/06 08:24:09;;;;;;;19.60;11.00;;;;;;;-147.86;89.28;41525.15;105915;1251;64193;-49
2024/03/06 08:26:37;;;;;;;26.50;12.70;;;;;;;-147.86;88.58;42351.89;105969;1257;71925;-50
2024/03/06 08:29:06;;;;;;;19.30;11.80;;;;;;;-147.86;86.82;43564.53;106001;1255;60392;-53
2024/03/06 08:31:34;;;;;;;15.80;11.00;;;;;;;-147.86;84.71;44536.63;105959;1256;61142;-54
2024/03/06 08:34:02;;;;;;;23.90;11.80;;;;;;;-147.86;83.82;44884.09;105921;1256;76250;-52
2024/03/06 08:36:29;;;;;;;26.30;11.20;;;;;;;-147.86;82.33;45130.89;105919;1255;64595;-53
2024/03/06 08:38:57;;;;;;;27.30;12.80;;;;;;;-147.86;83.22;45183.77;105868;1251;74886;-50
2024/03/06 08:41:25;;;;;;;30.30;12.20;;;;;;;-147.86;83.46;45201.40;105950;1257;60543;-47
2024/03/06 08:43:53;;;;;;;27.40;12.80;;;;;;;-147.86;83.39;45212.77;105891;1253;60546;-54
2024/03/06 08:46:20;;;;;;;26.20;13.20;;;;;;;-147.86;84.87;45202.97;105882;1251;75903;-56
2024/03/06 08:48:49;;;;;;;25.20;13.40;;;;;;;-147.86;86.40;45077.21;105922;1255;66914;-51
2024/03/06 08:51:17;;;;;;;22.40;12.80;;;;;;;-147.86;84.78;45102.29;106038;1255;72560;-51
2024/03/06 08:53:46;;;;;;;24.80;13.90;;;;;;;-147.86;83.39;45257.82;105864;1257;60549;-50
2024/03/06 08:56:15;;;;;;;28.50;14.90;;;;;;;-147.86;82.47;45335.79;105933;1251;60577;-50
2024/03/06 08:58:43;;;;;;;24.00;15.30;;;;;;;-147.86;81.73;45385.15;105990;1255;76273;-51
2024/03/06 09:01:11;;;;;;;29.60;16.80;;;;;;;-147.86;80.14;45405.52;105938;1254;63531;-49
2024/03/06 09:03:38;;;;;;;30.00;16.80;;;;;;;-147.86;81.28;45435.30;105932;1251;72461;-48
2024/03/06 09:06:06;;;;;;;29.40;16.60;;;;;;;-147.86;82.61;45443.53;105906;1256;60927;-48
2024/03/06 09:08:34;;;;;;;30.50;18.20;;;;;;;-147.86;83.28;45420.02;105969;1251;60609;-52
2024/03/06 09:11:02;;;;;;;28.20;16.90;;;;;;;-147.86;83.35;45416.49;105917;1251;75179;-51
2024/03/06 09:13:30;;;;;;;28.10;16.40;;;;;;;-147.86;82.74;45420.02;106017;1255;66681;-50
2024/03/06 09:15:58;;;;;;;34.00;17.70;;;;;;;-147.86;81.79;45431.38;105886;1257;72476;-52
2024/03/06 09:18:27;;;;;;;56.10;17.40;;;;;;;-147.86;83.02;45438.83;105947;1256;61098;-50
2024/03/06 09:20:56;;;;;;;31.50;16.50;;;;;;;-147.86;83.72;45429.43;105972;1251;60471;-52
2024/03/06 09:23:26;;;;;;;35.80;19.00;;;;;;;-147.86;81.15;45446.66;105986;1255;74719;-53
2024/03/06 09:25:54;;;;;;;30.50;17.50;;;;;;;-147.86;81.47;45458.02;105925;1251;63577;-49
2024/03/06 09:28:22;;;;;;;32.60;16.70;;;;;;;-147.86;79.54;45477.61;105901;1256;72519;-53
2024/03/06 09:30:50;;;;;;;31.50;16.80;;;;;;;-147.86;78.32;45506.61;105955;1256;60796;-49
2024/03/06 09:33:18;;;;;;;32.70;19.70;;;;;;;-147.86;77.59;45505.43;105974;1251;60450;-53
2024/03/06 09:35:46;;;;;;;60.50;34.00;;;;;;;-147.86;74.84;45518.36;105934;1251;74413;-53
2024/03/06 09:38:14;;;;;;;53.50;29.30;;;;;;;-147.86;76.26;45548.54;105901;1257;65489;-50
2024/03/06 09:40:46;;;;;;;61.90;33.90;;;;;;;-147.86;80.12;45544.61;105946;1252;73903;-49
2024/03/06 09:43:14;;;;;;;46.80;27.60;;;;;;;-147.86;82.41;45525.02;105882;1257;60524;-53
2024/03/06 09:45:42;;;;;;;56.60;31.30;;;;;;;-147.86;81.63;45504.26;105917;1255;62209;-53
2024/03/06 09:48:10;;;;;;;39.00;19.40;;;;;;;-147.86;81.64;45487.02;105801;1253;73604;-50
2024/03/06 09:50:41;;;;;;;49.00;26.80;;;;;;;-147.86;83.23;45480.75;105737;1251;65547;-54
2024/03/06 09:53:09;;;;;;;137.80;71.30;;;;;;;-147.86;83.16;45450.59;105736;1259;72444;-46
2024/03/06 09:55:37;;;;;;;93.30;47.70;;;;;;;-147.86;83.74;45445.49;105949;1256;60446;-50
2024/03/06 09:58:06;;;;;;;41.70;23.70;;;;;;;-147.86;83.80;45428.25;105741;1251;61251;-48
2024/03/06 10:00:37;;;;;;;68.90;34.90;;;;;;;-147.86;84.09;45400.04;105937;1251;74293;-54
2024/03/06 10:03:05;;;;;;;40.30;22.20;;;;;;;-147.86;83.76;45376.54;105941;1257;66305;-50
2024/03/06 10:05:34;;;;;;;58.90;31.50;;;;;;;-147.86;82.81;45392.20;105923;1251;74961;-53
2024/03/06 10:08:04;;;;;;;42.30;23.60;;;;;;;-147.86;83.15;45392.20;105917;1255;60325;-50
2024/03/06 10:10:32;;;;;;;54.50;28.60;;;;;;;-147.86;78.69;45425.51;105961;1251;62249;-52
2024/03/06 10:13:00;;;;;;;34.00;19.10;;;;;;;-147.86;77.97;45472.91;105943;1251;74245;-53
2024/03/06 10:15:29;;;;;;;30.30;17.60;;;;;;;-147.86;77.18;45496.81;106006;1251;65030;-54
2024/03/06 10:18:18;;;;;;;36.40;18.40;;;;;;;-147.86;75.96;45526.20;105991;1251;74814;-54
2024/03/06 10:20:46;;;;;;;38.30;20.40;;;;;;;-147.86;74.10;45559.50;105975;1257;62076;-57
2024/03/06 10:23:14;;;;;;;35.40;20.20;;;;;;;-147.86;76.34;45593.59;105938;1251;60526;-47
2024/03/06 10:25:44;;;;;;;35.30;19.90;;;;;;;-147.86;74.60;45604.17;105969;1256;76103;-55
2024/03/06 10:28:15;;;;;;;66.30;37.60;;;;;;;-147.86;71.69;45640.22;105969;1251;66286;-52
2024/03/06 10:30:43;;;;;;;225.80;95.40;;;;;;;-147.86;73.78;45675.88;105927;1255;73457;-56
2024/03/06 10:33:12;;;;;;;122.00;50.40;;;;;;;-147.86;74.86;45676.26;105909;1254;61154;-54
2024/03/06 10:35:44;;;;;;;48.00;26.50;;;;;;;-147.86;74.78;45686.06;105969;1256;60790;-52
2024/03/06 10:38:12;;;;;;;58.20;29.30;;;;;;;-147.86;74.53;45696.25;105957;1251;72598;-55
2024/03/06 10:40:42;;;;;;;48.80;24.90;;;;;;;-147.86;73.23;45720.54;105987;1256;64705;-56
2024/03/06 10:43:10;;;;;;;52.50;28.00;;;;;;;-147.86;73.56;45732.69;105981;1251;73721;-53
2024/03/06 10:45:49;;;;;;;53.50;28.40;;;;;;;-147.86;74.40;45742.48;105944;1251;61550;-53
2024/03/06 10:48:20;;;;;;;57.00;27.90;;;;;;;-147.86;73.82;45759.33;106057;1256;61963;-50
2024/03/06 10:50:49;;;;;;;51.50;27.00;;;;;;;-147.86;72.97;45767.95;105979;1251;74490;-52
2024/03/06 10:53:18;;;;;;;44.00;22.50;;;;;;;-147.86;70.89;45789.89;106002;1251;66738;-54
2024/03/06 10:55:52;;;;;;;48.10;21.60;;;;;;;-147.86;71.36;45829.08;105953;1256;74558;-51
2024/03/06 10:58:20;;;;;;;58.40;27.80;;;;;;;-147.86;67.83;45862.38;105747;1251;60469;-49
2024/03/06 11:00:48;;;;;;;44.00;22.90;;;;;;;-147.86;66.20;45912.54;105931;1251;60469;-52
2024/03/06 11:03:16;;;;;;;40.20;20.20;;;;;;;-147.86;67.33;45962.30;105977;1251;73808;-55
2024/03/06 11:05:47;;;;;;;29.60;16.70;;;;;;;-147.86;69.35;45980.33;106018;1254;65048;-53
2024/03/06 11:08:16;;;;;;;34.20;17.00;;;;;;;-147.86;66.27;45980.72;105970;1251;72456;-54
2024/03/06 11:10:45;;;;;;;31.80;17.90;;;;;;;-147.86;64.05;46034.41;105915;1256;60573;-48
2024/03/06 11:13:19;;;;;;;33.70;17.70;;;;;;;-147.86;65.13;46115.52;105984;1256;62164;-54
2024/03/06 11:15:48;;;;;;;42.50;20.40;;;;;;;-147.86;64.78;46137.86;105950;1255;73718;-50
2024/03/06 11:18:28;;;;;;;41.30;21.00;;;;;;;-147.86;64.48;46167.64;105870;1257;64563;-52
2024/03/06 11:21:02;;;;;;;37.70;18.10;;;;;;;-147.86;65.16;46187.23;105889;1251;74470;-50
2024/03/06 11:23:30;;;;;;;32.20;17.50;;;;;;;-147.86;64.41;46203.70;105990;1251;61255;-54
2024/03/06 11:26:05;;;;;;;38.30;17.80;;;;;;;-147.86;61.91;46249.54;105973;1251;62457;-51
2024/03/06 11:28:38;;;;;;;38.00;22.00;;;;;;;-147.86;60.61;46287.55;105961;1253;74043;-54
2024/03/06 11:31:11;;;;;;;227.50;107.40;;;;;;;-147.86;61.82;46333.40;106000;1255;64316;-55
2024/03/06 11:33:40;;;;;;;84.40;39.40;;;;;;;-147.86;62.10;46347.12;106025;1251;71231;-53
2024/03/06 11:36:26;;;;;;;46.00;21.70;;;;;;;-147.86;62.56;46369.46;105971;1251;60565;-51
2024/03/06 11:39:03;;;;;;;33.90;20.00;;;;;;;-147.86;64.40;46371.42;105976;1256;60444;-51
2024/03/06 11:41:33;;;;;;;42.00;21.20;;;;;;;-147.86;65.45;46393.76;105934;1257;74593;-51
2024/03/06 11:44:02;;;;;;;52.30;22.80;;;;;;;-147.86;69.97;46385.13;105978;1251;67000;-51
2024/03/06 11:46:49;;;;;;;39.00;21.30;;;;;;;-147.86;71.69;46347.12;105928;1257;72872;-49
2024/03/06 11:49:21;;;;;;;61.40;27.50;;;;;;;-147.86;73.02;46348.69;105955;1251;60490;-51
2024/03/06 11:51:53;;;;;;;60.80;25.50;;;;;;;-147.86;75.71;46300.09;105933;1251;60527;-54
2024/03/06 11:54:24;;;;;;;42.50;21.70;;;;;;;-147.86;76.20;46255.03;106029;1251;73474;-49